createdAt,value
2022-07-27T00:02:30.040Z,24.11
2022-07-27T00:05:00.549Z,24.16
2022-07-27T00:07:30.676Z,24.21
2022-07-27T00:10:01.238Z,24.26
2022-07-27T00:12:32.416Z,24.30
2022-07-27T00:15:02.912Z,24.35
2022-07-27T00:17:33.841Z,24.36
2022-07-27T00:20:04.537Z,24.39
2022-07-27T00:22:35.527Z,24.43
2022-07-27T00:25:06.972Z,24.43
2022-07-27T00:27:38.223Z,24.40
2022-07-27T00:30:09.201Z,24.42
2022-07-27T00:32:40.403Z,24.44
2022-07-27T00:35:12.316Z,24.43
2022-07-27T00:37:43.227Z,24.44
2022-07-27T00:40:16.605Z,24.42
2022-07-27T00:42:47.885Z,24.42
2022-07-27T00:45:18.424Z,24.39
2022-07-27T00:47:51.814Z,24.44
2022-07-27T00:50:25.377Z,24.42
2022-07-27T00:52:57.620Z,24.44
2022-07-27T00:55:29.556Z,24.42
2022-07-27T00:58:01.633Z,24.42
2022-07-27T01:00:33.294Z,24.39
2022-07-27T01:03:09.091Z,24.38
2022-07-27T01:05:42.906Z,24.38
2022-07-27T01:08:16.143Z,24.38
2022-07-27T01:10:47.911Z,24.36
2022-07-27T01:13:20.278Z,24.35
2022-07-27T01:15:51.712Z,24.33
2022-07-27T01:18:42.240Z,24.33
2022-07-27T01:21:13.142Z,24.33
2022-07-27T01:23:44.408Z,24.32
2022-07-27T01:26:19.752Z,24.31
2022-07-27T01:28:53.825Z,24.35
2022-07-27T01:31:25.470Z,24.36
2022-07-27T01:33:56.625Z,24.37
2022-07-27T01:36:27.178Z,24.41
2022-07-27T01:38:57.997Z,24.42
2022-07-27T01:41:32.008Z,24.43
2022-07-27T01:44:02.978Z,24.45
2022-07-27T01:46:34.199Z,24.47
2022-07-27T01:49:08.847Z,24.47
2022-07-27T01:51:39.805Z,24.47
2022-07-27T01:54:10.707Z,24.50
2022-07-27T01:56:41.659Z,24.52
2022-07-27T01:59:16.102Z,24.54
2022-07-27T02:01:50.383Z,24.55
2022-07-27T02:04:21.489Z,24.57
2022-07-27T02:06:52.822Z,24.58
2022-07-27T02:09:23.166Z,24.62
2022-07-27T02:12:14.740Z,24.66
2022-07-27T02:14:47.025Z,24.68
2022-07-27T02:17:20.979Z,24.70
2022-07-27T02:19:54.224Z,24.72
2022-07-27T02:22:24.995Z,24.73
2022-07-27T02:24:55.979Z,24.72
2022-07-27T02:27:28.647Z,24.74
2022-07-27T02:29:59.733Z,24.75
2022-07-27T02:32:31.005Z,24.75
2022-07-27T02:35:18.781Z,24.77
2022-07-27T02:37:51.439Z,24.79
2022-07-27T02:40:23.402Z,24.83
2022-07-27T02:42:54.572Z,24.84
2022-07-27T02:45:25.789Z,24.84
2022-07-27T02:47:59.472Z,24.85
2022-07-27T02:50:33.622Z,24.87
2022-07-27T02:53:04.550Z,24.90
2022-07-27T02:55:35.481Z,24.91
2022-07-27T02:58:21.637Z,24.95
2022-07-27T03:11:56.840Z,25.02
2022-07-27T03:15:20.574Z,25.04
2022-07-27T03:20:44.500Z,25.06
2022-07-27T03:23:15.515Z,25.08
2022-07-27T03:25:51.143Z,25.05
2022-07-27T03:28:24.725Z,25.05
2022-07-27T03:31:13.332Z,25.08
2022-07-27T03:33:53.545Z,25.08
2022-07-27T03:56:15.323Z,25.04
2022-07-27T03:59:07.739Z,25.04
2022-07-27T04:01:41.143Z,25.07
2022-07-27T04:04:28.466Z,25.09
2022-07-27T04:06:59.897Z,25.12
2022-07-27T04:09:42.533Z,25.15
2022-07-27T04:12:20.008Z,25.16
2022-07-27T04:14:51.217Z,25.17
2022-07-27T04:17:54.997Z,25.19
2022-07-27T04:20:17.044Z,25.23
2022-07-27T04:22:49.374Z,25.22
2022-07-27T04:25:20.329Z,25.22
2022-07-27T04:27:51.974Z,25.23
2022-07-27T04:30:22.810Z,25.22
2022-07-27T04:32:54.009Z,25.21
2022-07-27T04:35:26.761Z,25.24
2022-07-27T04:37:59.805Z,25.27
2022-07-27T04:40:38.596Z,25.29
2022-07-27T04:43:41.835Z,25.32
2022-07-27T04:51:38.964Z,25.42
2022-07-27T04:54:21.706Z,25.45
2022-07-27T04:57:27.073Z,25.48
2022-07-27T05:00:51.481Z,25.49
2022-07-27T05:03:54.225Z,25.47
2022-07-27T05:06:48.288Z,25.46
2022-07-27T05:10:05.974Z,25.46
2022-07-27T05:15:28.995Z,25.38
2022-07-27T05:18:20.909Z,25.36
2022-07-27T05:20:52.154Z,25.39
2022-07-27T05:23:23.363Z,25.44
2022-07-27T05:36:17.882Z,25.45
2022-07-27T05:39:32.353Z,25.44
2022-07-27T05:42:21.307Z,25.44
2022-07-27T05:44:58.480Z,25.42
2022-07-27T05:47:29.372Z,25.37
2022-07-27T05:50:00.555Z,25.39
2022-07-27T05:52:31.536Z,25.35
2022-07-27T05:55:06.057Z,25.37
2022-07-27T05:57:36.971Z,25.35
2022-07-27T06:00:09.131Z,25.37
2022-07-27T06:02:42.966Z,25.36
2022-07-27T06:05:20.696Z,25.30
2022-07-27T06:08:49.107Z,25.35
2022-07-27T06:11:32.159Z,25.34
2022-07-27T06:14:02.807Z,25.33
2022-07-27T06:16:36.181Z,25.30
2022-07-27T06:19:09.717Z,25.29
2022-07-27T06:21:40.633Z,25.29
2022-07-27T06:24:11.339Z,25.28
2022-07-27T06:26:41.210Z,25.29
2022-07-27T06:29:12.086Z,25.27
2022-07-27T06:31:49.420Z,25.26
2022-07-27T06:34:20.271Z,25.23
2022-07-27T06:36:53.588Z,25.20
2022-07-27T06:39:24.083Z,25.20
2022-07-27T06:41:58.088Z,25.19
2022-07-27T06:47:57.407Z,25.08
2022-07-27T06:50:33.940Z,25.01
2022-07-27T06:53:05.683Z,24.99
2022-07-27T06:56:00.771Z,25.00
2022-07-27T06:58:33.350Z,24.94
2022-07-27T07:01:53.471Z,24.89
2022-07-27T07:08:28.184Z,24.79
2022-07-27T07:10:58.980Z,24.79
2022-07-27T07:20:16.429Z,24.80
2022-07-27T07:23:07.548Z,24.79
2022-07-27T07:25:57.451Z,24.78
2022-07-27T07:29:53.885Z,24.78
2022-07-27T07:33:09.784Z,24.78
2022-07-27T07:36:14.989Z,24.78
2022-07-27T07:38:46.247Z,24.82
2022-07-27T07:41:17.521Z,24.78
2022-07-27T07:43:50.192Z,24.79
2022-07-27T07:46:20.829Z,24.75
2022-07-27T07:48:54.370Z,24.76
2022-07-27T07:51:25.035Z,24.78
2022-07-27T07:53:55.831Z,24.78
2022-07-27T07:56:26.143Z,24.75
2022-07-27T07:59:15.911Z,24.73
2022-07-27T08:01:46.899Z,24.74
2022-07-27T08:04:17.018Z,24.76
2022-07-27T08:06:47.311Z,24.77
2022-07-27T08:09:19.079Z,24.76
2022-07-27T08:11:49.230Z,24.82
2022-07-27T08:14:19.843Z,24.84
2022-07-27T08:16:50.479Z,24.88
2022-07-27T08:19:21.149Z,24.88
2022-07-27T08:21:51.983Z,24.94
2022-07-27T08:24:22.394Z,24.96
2022-07-27T08:26:52.872Z,24.98
2022-07-27T08:29:23.661Z,25.00
2022-07-27T08:32:07.511Z,25.02
2022-07-27T08:34:39.927Z,24.97
2022-07-27T08:37:15.358Z,25.04
2022-07-27T08:40:38.414Z,25.07
2022-07-27T08:42:38.733Z,25.07
2022-07-27T08:45:12.589Z,25.08
2022-07-27T08:47:52.230Z,25.10
2022-07-27T08:50:27.329Z,25.11
2022-07-27T08:52:59.950Z,25.13
2022-07-27T08:55:30.627Z,25.11
2022-07-27T08:58:03.400Z,25.13
2022-07-27T09:00:40.475Z,25.11
2022-07-27T09:03:19.057Z,25.10
2022-07-27T09:05:53.497Z,25.10
2022-07-27T09:08:31.221Z,25.09
2022-07-27T09:11:22.029Z,25.08
2022-07-27T09:13:53.814Z,25.05
2022-07-27T09:17:14.927Z,25.02
2022-07-27T09:19:23.598Z,24.97
2022-07-27T09:21:54.395Z,24.97
2022-07-27T09:24:46.283Z,24.94
2022-07-27T09:28:02.822Z,24.92
2022-07-27T09:31:14.679Z,24.90
2022-07-27T09:34:06.860Z,24.93
2022-07-27T09:37:16.733Z,24.93
2022-07-27T09:44:12.314Z,24.88
2022-07-27T09:46:26.577Z,24.86
2022-07-27T09:49:00.081Z,24.81
2022-07-27T09:55:14.623Z,24.72
2022-07-27T09:58:16.200Z,24.68
2022-07-27T10:01:19.052Z,24.63
2022-07-27T10:05:00.055Z,24.61
2022-07-27T10:07:22.484Z,24.56
2022-07-27T10:09:56.869Z,24.53
2022-07-27T10:12:29.200Z,24.51
2022-07-27T10:15:00.111Z,24.48
2022-07-27T10:17:35.098Z,24.45
2022-07-27T10:20:29.018Z,24.40
2022-07-27T10:23:02.718Z,24.33
2022-07-27T10:25:38.045Z,24.29
2022-07-27T10:28:14.856Z,24.22
2022-07-27T10:30:54.307Z,24.08
2022-07-27T10:33:54.265Z,23.90
2022-07-27T10:36:33.797Z,23.67
2022-07-27T10:39:19.771Z,23.52
2022-07-27T10:42:51.875Z,23.38
2022-07-27T10:46:01.612Z,23.25
2022-07-27T10:49:07.426Z,23.12
2022-07-27T10:52:40.202Z,22.98
2022-07-27T10:55:41.567Z,22.86
2022-07-27T10:58:42.229Z,22.78
2022-07-27T11:01:34.712Z,22.71
2022-07-27T11:04:39.058Z,22.64
2022-07-27T11:08:05.142Z,22.58
2022-07-27T11:11:19.579Z,22.52
2022-07-27T11:14:30.329Z,22.47
2022-07-27T11:17:40.054Z,22.44
2022-07-27T11:20:09.720Z,22.36
2022-07-27T11:23:40.699Z,22.26
2022-07-27T11:25:38.079Z,22.22
2022-07-27T11:28:11.650Z,22.21
2022-07-27T11:30:46.430Z,22.23
2022-07-27T11:33:25.985Z,22.20
2022-07-27T11:36:03.295Z,22.20
2022-07-27T11:39:15.069Z,22.20
2022-07-27T11:42:08.440Z,22.19
2022-07-27T11:44:49.528Z,22.20
2022-07-27T11:47:43.554Z,22.21
2022-07-27T11:50:18.888Z,22.22
2022-07-27T11:53:05.016Z,22.20
2022-07-27T11:55:42.858Z,22.19
2022-07-27T11:58:17.415Z,22.20
2022-07-27T12:00:54.095Z,22.18
2022-07-27T12:03:32.057Z,22.12
2022-07-27T12:06:18.186Z,22.07
2022-07-27T12:08:49.145Z,22.05
2022-07-27T12:11:34.297Z,22.06
2022-07-27T12:14:27.756Z,22.04
2022-07-27T12:18:03.151Z,22.01
2022-07-27T12:21:04.485Z,22.00
2022-07-27T12:24:09.471Z,22.00
2022-07-27T12:30:22.140Z,22.00
2022-07-27T12:33:00.625Z,22.00
2022-07-27T12:35:38.782Z,22.01
2022-07-27T12:38:11.800Z,22.02
2022-07-27T12:40:59.868Z,22.03
2022-07-27T12:43:32.339Z,22.04
2022-07-27T12:46:13.879Z,22.07
2022-07-27T12:48:46.842Z,22.08
2022-07-27T12:51:28.009Z,22.08
2022-07-27T12:53:58.915Z,22.11
2022-07-27T12:56:29.570Z,22.12
2022-07-27T12:59:06.950Z,22.16
2022-07-27T13:01:38.291Z,22.16
2022-07-27T13:04:10.301Z,22.13
2022-07-27T13:06:41.259Z,22.19
2022-07-27T13:09:12.778Z,22.20
2022-07-27T13:11:47.651Z,22.19
2022-07-27T13:14:19.290Z,22.17
2022-07-27T13:16:50.510Z,22.16
2022-07-27T13:19:22.444Z,22.13
2022-07-27T13:21:53.811Z,22.16
2022-07-27T13:24:24.741Z,22.16
2022-07-27T13:26:57.714Z,22.18
2022-07-27T13:29:32.219Z,22.15
2022-07-27T13:32:03.056Z,22.20
2022-07-27T13:34:33.908Z,22.24
2022-07-27T13:37:59.664Z,22.25
2022-07-27T13:56:53.399Z,22.28
2022-07-27T14:03:59.023Z,22.15
2022-07-27T14:06:30.305Z,22.10
2022-07-27T14:09:02.099Z,22.09
2022-07-27T14:11:53.008Z,22.04
2022-07-27T14:14:27.251Z,21.99
2022-07-27T14:16:58.118Z,22.00
2022-07-27T14:19:29.838Z,21.98
2022-07-27T14:22:24.007Z,22.00
2022-07-27T14:24:55.088Z,21.98
2022-07-27T14:27:26.442Z,21.97
2022-07-27T14:30:09.127Z,21.96
2022-07-27T14:33:35.172Z,21.92
2022-07-27T14:36:31.679Z,21.88
2022-07-27T14:39:27.020Z,21.84
2022-07-27T14:41:59.247Z,21.81
2022-07-27T14:44:34.797Z,21.79
2022-07-27T14:47:05.819Z,21.82
2022-07-27T14:49:54.058Z,21.82
2022-07-27T15:09:37.916Z,21.86
2022-07-27T15:15:44.618Z,21.81
2022-07-27T15:18:51.605Z,21.81
2022-07-27T15:21:36.224Z,21.80
2022-07-27T15:24:46.321Z,21.78
2022-07-27T15:27:37.404Z,21.78
2022-07-27T15:30:17.461Z,21.73
2022-07-27T15:32:55.645Z,21.79
2022-07-27T15:35:27.894Z,21.78
2022-07-27T15:37:59.093Z,21.79
2022-07-27T15:40:59.856Z,21.82
2022-07-27T15:44:28.195Z,21.81
2022-07-27T15:52:49.298Z,21.82
2022-07-27T15:55:26.895Z,21.82
2022-07-27T15:58:08.027Z,21.84
2022-07-27T16:00:47.675Z,21.84
2022-07-27T16:14:56.661Z,21.80
2022-07-27T16:23:17.934Z,21.76
2022-07-27T16:33:28.564Z,21.69
2022-07-27T16:49:02.234Z,21.58
2022-07-27T16:52:58.468Z,21.57
2022-07-27T16:59:48.537Z,21.59
2022-07-27T17:03:27.132Z,21.59
2022-07-27T17:06:23.562Z,21.60
2022-07-27T17:08:54.247Z,21.61
2022-07-27T17:11:25.196Z,21.63
2022-07-27T17:13:58.929Z,21.67
2022-07-27T17:16:30.715Z,21.69
2022-07-27T17:19:01.307Z,21.70
2022-07-27T17:21:31.970Z,21.68
2022-07-27T17:24:02.609Z,21.70
2022-07-27T17:26:33.817Z,21.72
2022-07-27T17:29:04.371Z,21.73
2022-07-27T17:31:35.143Z,21.73
2022-07-27T17:34:05.990Z,21.71
2022-07-27T17:36:36.629Z,21.70
2022-07-27T17:39:08.059Z,21.67
2022-07-27T17:41:38.799Z,21.64
2022-07-27T17:44:08.952Z,21.62
2022-07-27T17:46:40.120Z,21.59
2022-07-27T17:49:11.182Z,21.58
2022-07-27T17:51:42.351Z,21.58
2022-07-27T17:54:13.001Z,21.59
2022-07-27T17:56:43.399Z,21.58
2022-07-27T17:59:35.826Z,21.57
2022-07-27T18:02:06.309Z,21.61
2022-07-27T18:04:39.419Z,21.61
2022-07-27T18:07:09.841Z,21.63
2022-07-27T18:09:40.980Z,21.62
2022-07-27T18:12:11.494Z,21.61
2022-07-27T18:15:01.367Z,21.61
2022-07-27T18:17:32.306Z,21.58
2022-07-27T18:20:03.078Z,21.58
2022-07-27T18:22:38.330Z,21.54
2022-07-27T18:25:10.699Z,21.49
2022-07-27T18:27:42.165Z,21.47
2022-07-27T18:30:13.667Z,21.46
2022-07-27T18:32:46.479Z,21.44
2022-07-27T18:35:16.671Z,21.41
2022-07-27T18:37:46.912Z,21.46
2022-07-27T18:40:17.298Z,21.46
2022-07-27T18:42:47.790Z,21.46
2022-07-27T18:45:18.067Z,21.43
2022-07-27T18:47:49.298Z,21.41
2022-07-27T18:50:20.068Z,21.38
2022-07-27T18:52:50.299Z,21.35
2022-07-27T18:55:22.787Z,21.35
2022-07-27T18:58:00.151Z,21.34
2022-07-27T19:00:30.941Z,21.33
2022-07-27T19:03:01.509Z,21.29
2022-07-27T19:05:41.370Z,21.32
2022-07-27T19:08:13.806Z,21.34
2022-07-27T19:10:45.512Z,21.35
2022-07-27T19:13:15.639Z,21.31
2022-07-27T19:15:46.623Z,21.32
2022-07-27T19:18:16.783Z,21.30
2022-07-27T19:20:47.017Z,21.30
2022-07-27T19:23:17.180Z,21.32
2022-07-27T19:25:47.348Z,21.31
2022-07-27T19:28:20.489Z,21.32
2022-07-27T19:30:50.630Z,21.32
2022-07-27T19:33:22.424Z,21.34
2022-07-27T19:35:53.806Z,21.32
2022-07-27T19:38:23.374Z,21.34
2022-07-27T19:40:56.174Z,21.34
2022-07-27T19:43:26.642Z,21.37
2022-07-27T19:45:57.007Z,21.37
2022-07-27T19:48:29.181Z,21.37
2022-07-27T19:51:06.390Z,21.37
2022-07-27T19:53:37.360Z,21.37
2022-07-27T19:56:07.666Z,21.40
2022-07-27T19:58:36.968Z,21.39
2022-07-27T20:01:09.548Z,21.36
2022-07-27T20:03:53.331Z,21.34
2022-07-27T20:06:28.198Z,21.32
2022-07-27T20:09:00.853Z,21.32
2022-07-27T20:11:32.339Z,21.33
2022-07-27T20:14:03.859Z,21.35
2022-07-27T20:16:35.455Z,21.35
2022-07-27T20:19:05.687Z,21.34
2022-07-27T20:21:38.114Z,21.33
2022-07-27T20:24:08.544Z,21.33
2022-07-27T20:26:38.584Z,21.34
2022-07-27T20:29:09.112Z,21.34
2022-07-27T20:31:41.368Z,21.35
2022-07-27T20:34:11.489Z,21.33
2022-07-27T20:36:41.431Z,21.34
2022-07-27T20:39:16.898Z,21.34
2022-07-27T20:41:48.057Z,21.33
2022-07-27T20:44:18.257Z,21.28
2022-07-27T20:46:48.400Z,21.26
2022-07-27T20:49:18.786Z,21.24
2022-07-27T20:51:49.019Z,21.22
2022-07-27T20:54:19.169Z,21.22
2022-07-27T20:57:00.016Z,21.23
2022-07-27T20:59:30.353Z,21.25
2022-07-27T21:02:00.711Z,21.24
2022-07-27T21:04:30.838Z,21.28
2022-07-27T21:07:00.850Z,21.28
2022-07-27T21:09:32.909Z,21.28
2022-07-27T21:12:03.321Z,21.30
2022-07-27T21:14:33.818Z,21.30
2022-07-27T21:17:04.024Z,21.29
2022-07-27T21:19:34.479Z,21.31
2022-07-27T21:22:04.955Z,21.31
2022-07-27T21:24:36.768Z,21.31
2022-07-27T21:27:07.603Z,21.32
2022-07-27T21:29:39.896Z,21.32
2022-07-27T21:32:10.964Z,21.31
2022-07-27T21:34:41.353Z,21.31
2022-07-27T21:37:12.062Z,21.30
2022-07-27T21:39:41.733Z,21.32
2022-07-27T21:42:11.949Z,21.30
2022-07-27T21:44:43.018Z,21.28
2022-07-27T21:47:14.641Z,21.24
2022-07-27T21:49:46.691Z,21.23
2022-07-27T21:52:17.107Z,21.15
2022-07-27T21:54:47.359Z,21.16
2022-07-27T21:57:17.513Z,21.14
2022-07-27T21:59:48.731Z,21.16
2022-07-27T22:02:18.894Z,21.18
2022-07-27T22:04:49.152Z,21.21
2022-07-27T22:07:19.716Z,21.23
2022-07-27T22:09:50.222Z,21.24
2022-07-27T22:12:20.361Z,21.24
2022-07-27T22:14:50.338Z,21.24
2022-07-27T22:17:19.955Z,21.25
2022-07-27T22:19:50.170Z,21.24
2022-07-27T22:22:20.370Z,21.24
2022-07-27T22:24:50.884Z,21.23
2022-07-27T22:27:21.146Z,21.22
2022-07-27T22:29:52.364Z,21.22
2022-07-27T22:32:23.204Z,21.24
2022-07-27T22:34:53.585Z,21.25
2022-07-27T22:37:23.716Z,21.25
2022-07-27T22:39:53.923Z,21.26
2022-07-27T22:42:24.402Z,21.27
2022-07-27T22:44:54.699Z,21.27
2022-07-27T22:47:24.778Z,21.29
2022-07-27T22:49:54.898Z,21.31
2022-07-27T22:52:25.324Z,21.33
2022-07-27T22:54:56.187Z,21.33
2022-07-27T22:57:27.039Z,21.36
2022-07-27T22:59:57.819Z,21.35
2022-07-27T23:02:29.437Z,21.38
2022-07-27T23:05:00.864Z,21.40
2022-07-27T23:07:31.696Z,21.39
2022-07-27T23:10:01.922Z,21.46
2022-07-27T23:12:32.531Z,21.45
2022-07-27T23:15:03.196Z,21.49
2022-07-27T23:17:34.181Z,21.52
2022-07-27T23:20:05.026Z,21.53
2022-07-27T23:22:35.314Z,21.57
2022-07-27T23:25:07.219Z,21.56
2022-07-27T23:27:37.721Z,21.58
2022-07-27T23:30:09.105Z,21.58
2022-07-27T23:32:40.740Z,21.56
2022-07-27T23:35:11.918Z,21.55
2022-07-27T23:37:42.422Z,21.57
2022-07-27T23:40:13.242Z,21.57
2022-07-27T23:42:43.520Z,21.57
2022-07-27T23:45:14.196Z,21.53
2022-07-27T23:47:44.764Z,21.52
2022-07-27T23:50:15.146Z,21.51
2022-07-27T23:52:45.170Z,21.53
2022-07-27T23:55:15.474Z,21.55
2022-07-27T23:57:45.685Z,21.57
